Time;durP1;ratioP1;P1;durP2;ratioP2;P2;SDS_P1;SDS_P2;PMS_P1;PMS_P2;Temp;Humidity;BMP_temperature;BMP_pressure;BME280_temperature;BME280_humidity;BME280_pressure;Samples;Min_cycle;Max_cycle;Signal;HPM_P1;HPM_P2
2021/01/06 00:01:14;;;;;;;67.47;28.70;;;4.10;99.90;;;;;;3978880;29;20237;-95
2021/01/06 00:03:36;;;;;;;68.33;31.47;;;4.20;99.90;;;;;;4037090;23;20648;-95
2021/01/06 00:05:41;;;;;;;67.77;29.67;;;4.30;99.90;;;;;;3995989;29;20734;-94
2021/01/06 00:07:43;;;;;;;67.60;30.97;;;4.20;99.90;;;;;;3994438;29;20160;-95
2021/01/06 00:09:51;;;;;;;63.53;30.20;;;4.20;99.90;;;;;;3982018;29;20205;-94
2021/01/06 00:11:52;;;;;;;63.17;30.57;;;4.10;99.90;;;;;;3995095;29;20247;-95
2021/01/06 00:13:52;;;;;;;72.23;32.00;;;4.10;99.90;;;;;;3980468;29;20204;-92
2021/01/06 00:15:55;;;;;;;65.03;30.60;;;4.10;99.90;;;;;;4012180;29;20195;-94
2021/01/06 00:17:59;;;;;;;63.80;29.43;;;4.10;99.90;;;;;;4010205;29;20194;-93
2021/01/06 00:20:07;;;;;;;62.00;31.53;;;4.10;99.90;;;;;;3993729;29;20191;-94
2021/01/06 00:22:19;;;;;;;62.17;29.67;;;4.10;99.90;;;;;;4017281;23;20329;-93
2021/01/06 00:24:40;;;;;;;60.73;29.77;;;4.10;99.90;;;;;;4010953;29;20218;-95
2021/01/06 00:26:49;;;;;;;57.60;28.67;;;4.20;99.90;;;;;;3993746;29;20219;-93
2021/01/06 00:28:50;;;;;;;58.17;29.60;;;4.20;99.90;;;;;;4010347;29;20159;-96
2021/01/06 00:30:57;;;;;;;56.17;27.63;;;4.20;99.90;;;;;;4010013;29;20195;-95
2021/01/06 00:32:58;;;;;;;58.47;28.63;;;4.10;99.90;;;;;;3996933;29;20190;-95
2021/01/06 00:35:07;;;;;;;56.10;28.40;;;4.00;99.90;;;;;;4017778;23;20266;-95
2021/01/06 00:37:13;;;;;;;55.73;28.70;;;4.00;99.90;;;;;;3996325;29;20203;-96
2021/01/06 00:39:16;;;;;;;54.30;28.23;;;4.10;99.90;;;;;;4008552;29;20175;-93
2021/01/06 00:41:26;;;;;;;50.33;26.70;;;4.10;99.90;;;;;;4008462;29;20207;-95
2021/01/06 00:43:26;;;;;;;51.87;25.30;;;4.00;99.90;;;;;;4008287;29;20631;-93
2021/01/06 00:47:43;;;;;;;48.20;25.93;;;4.00;99.90;;;;;;4023329;29;20248;-94
2021/01/06 00:49:48;;;;;;;46.47;25.33;;;4.00;99.90;;;;;;4010561;29;20190;-94
2021/01/06 00:51:49;;;;;;;48.10;26.27;;;4.10;99.90;;;;;;4010020;29;20167;-94
2021/01/06 00:53:51;;;;;;;52.13;26.67;;;4.10;99.90;;;;;;3994765;29;20199;-94
2021/01/06 00:55:58;;;;;;;48.47;26.97;;;4.10;99.90;;;;;;4010018;29;20630;-94
2021/01/06 00:58:03;;;;;;;49.53;27.07;;;4.20;99.90;;;;;;3996734;29;20171;-95
2021/01/06 01:00:15;;;;;;;48.20;26.93;;;4.20;99.90;;;;;;4058042;23;20234;-93
2021/01/06 01:02:19;;;;;;;48.57;25.50;;;4.30;99.90;;;;;;3993576;29;20188;-96
2021/01/06 01:04:30;;;;;;;45.43;25.93;;;4.30;99.90;;;;;;4008466;29;20199;-96
2021/01/06 01:06:32;;;;;;;41.97;22.67;;;4.30;99.90;;;;;;4008081;29;20225;-93
2021/01/06 01:08:36;;;;;;;45.97;24.93;;;4.30;99.90;;;;;;4010275;29;20596;-93
2021/01/06 01:10:43;;;;;;;44.57;24.03;;;4.30;99.90;;;;;;4008123;29;20218;-94
2021/01/06 01:12:45;;;;;;;43.20;23.70;;;4.40;99.90;;;;;;4008042;29;20266;-94
2021/01/06 01:14:51;;;;;;;45.33;23.37;;;4.40;99.90;;;;;;4008073;29;20612;-95
2021/01/06 01:16:58;;;;;;;39.47;20.17;;;4.40;99.90;;;;;;4010402;29;20179;-95
2021/01/06 01:19:00;;;;;;;40.33;23.43;;;4.30;99.90;;;;;;4007987;29;20186;-94
2021/01/06 01:21:08;;;;;;;44.40;23.20;;;4.20;99.90;;;;;;3994612;29;20216;-94
2021/01/06 01:23:13;;;;;;;39.60;22.27;;;4.20;99.90;;;;;;3996929;29;20175;-93
2021/01/06 01:25:18;;;;;;;43.00;22.90;;;4.20;99.90;;;;;;3992675;29;20240;-93
2021/01/06 01:27:24;;;;;;;38.00;21.00;;;4.20;99.90;;;;;;3994435;29;20186;-94
2021/01/06 01:29:28;;;;;;;38.70;21.10;;;4.20;99.90;;;;;;4011258;29;20666;-94
2021/01/06 01:31:34;;;;;;;39.90;20.90;;;4.20;99.90;;;;;;3992766;29;20648;-94
2021/01/06 01:33:41;;;;;;;37.63;20.93;;;4.20;99.90;;;;;;4008520;29;20203;-95
2021/01/06 01:35:49;;;;;;;41.23;21.10;;;4.20;99.90;;;;;;4007669;29;20725;-93
2021/01/06 01:37:56;;;;;;;37.70;20.80;;;4.30;99.90;;;;;;4008704;29;20155;-94
2021/01/06 01:40:01;;;;;;;38.90;20.40;;;4.30;99.90;;;;;;3994562;29;20191;-94
2021/01/06 01:42:07;;;;;;;36.37;19.63;;;4.30;99.90;;;;;;4007548;29;20186;-94
2021/01/06 01:44:11;;;;;;;37.93;21.17;;;4.30;99.90;;;;;;3979020;29;20299;-93
2021/01/06 01:46:59;;;;;;;36.90;20.83;;;4.40;99.90;;;;;;4008898;29;20222;-94
2021/01/06 01:49:32;;;;;;;36.73;20.20;;;4.50;99.90;;;;;;4013468;29;20326;-95
2021/01/06 01:51:51;;;;;;;36.07;20.03;;;4.50;99.90;;;;;;4056219;23;20598;-94
2021/01/06 01:57:22;;;;;;;35.30;19.40;;;4.30;99.90;;;;;;4023945;29;20189;-94
2021/01/06 02:00:06;;;;;;;35.80;19.97;;;4.40;99.90;;;;;;4007646;29;20259;-93
2021/01/06 02:02:19;;;;;;;32.53;18.73;;;4.50;99.90;;;;;;4001699;29;20194;-95
2021/01/06 02:04:39;;;;;;;35.87;19.50;;;4.50;99.90;;;;;;3994716;29;20207;-94
2021/01/06 02:07:05;;;;;;;33.63;18.93;;;4.50;99.90;;;;;;4007154;29;20288;-93
2021/01/06 02:09:18;;;;;;;30.17;17.80;;;4.40;99.90;;;;;;3992686;29;20241;-94
2021/01/06 02:11:33;;;;;;;33.53;18.67;;;4.40;99.90;;;;;;4008835;29;20580;-94
2021/01/06 02:13:51;;;;;;;31.57;18.47;;;4.30;99.90;;;;;;3995333;29;20294;-94
2021/01/06 02:16:09;;;;;;;32.70;19.13;;;4.40;99.90;;;;;;4007251;29;20210;-93
2021/01/06 02:18:10;;;;;;;32.60;19.07;;;4.40;99.90;;;;;;3996122;29;20199;-94
2021/01/06 02:20:24;;;;;;;32.87;18.10;;;4.40;99.90;;;;;;3992325;29;20261;-94
2021/01/06 02:22:35;;;;;;;36.23;20.70;;;4.40;99.90;;;;;;4009159;29;20265;-93
2021/01/06 02:24:38;;;;;;;32.23;19.13;;;4.40;99.90;;;;;;3992556;29;20199;-94
2021/01/06 02:26:52;;;;;;;30.40;18.33;;;4.40;99.90;;;;;;3995705;29;20603;-95
2021/01/06 02:28:56;;;;;;;31.50;18.63;;;4.50;99.90;;;;;;3992181;29;20172;-94
2021/01/06 02:30:59;;;;;;;33.73;19.27;;;4.50;99.90;;;;;;3992113;29;20191;-94
2021/01/06 02:33:07;;;;;;;33.53;19.93;;;4.50;99.90;;;;;;4007041;29;20175;-93
2021/01/06 02:35:09;;;;;;;35.37;18.93;;;4.50;99.90;;;;;;3996247;29;20211;-93
2021/01/06 02:37:10;;;;;;;33.20;17.37;;;4.50;99.90;;;;;;4007561;29;20282;-94
2021/01/06 02:39:12;;;;;;;37.33;20.90;;;4.50;99.90;;;;;;3992166;29;20184;-94
2021/01/06 02:41:15;;;;;;;35.43;19.90;;;4.50;99.90;;;;;;4007251;29;20160;-95
2021/01/06 02:43:16;;;;;;;38.30;21.10;;;4.50;99.90;;;;;;3992177;29;20302;-94
2021/01/06 02:45:17;;;;;;;40.37;23.10;;;4.60;99.90;;;;;;3991748;29;20219;-94
2021/01/06 02:47:20;;;;;;;42.27;23.83;;;4.40;99.90;;;;;;4008699;29;20179;-93
2021/01/06 02:49:21;;;;;;;37.53;20.53;;;4.30;99.90;;;;;;3992057;29;20180;-94
2021/01/06 02:51:35;;;;;;;39.87;23.07;;;4.30;99.90;;;;;;3992629;29;20618;-94
2021/01/06 02:53:46;;;;;;;40.77;24.33;;;4.30;99.90;;;;;;4001460;23;21186;-95
2021/01/06 02:55:49;;;;;;;41.33;22.03;;;4.30;99.90;;;;;;3992974;29;20195;-94
2021/01/06 02:57:52;;;;;;;42.23;22.73;;;4.20;99.90;;;;;;3976497;29;20283;-94
2021/01/06 02:59:53;;;;;;;37.70;23.23;;;4.30;99.90;;;;;;3995368;29;20198;-94
2021/01/06 03:01:55;;;;;;;39.37;22.23;;;4.30;99.90;;;;;;4009856;29;20222;-94
2021/01/06 03:03:59;;;;;;;38.83;21.27;;;4.30;99.90;;;;;;4010509;29;20207;-94
2021/01/06 03:06:13;;;;;;;39.30;21.73;;;4.30;99.90;;;;;;3979761;29;20231;-94
2021/01/06 03:08:22;;;;;;;40.73;22.27;;;4.30;99.90;;;;;;3994655;29;20517;-94
2021/01/06 03:10:28;;;;;;;42.40;22.43;;;4.30;99.90;;;;;;3995060;29;20191;-94
2021/01/06 03:12:36;;;;;;;42.50;22.53;;;4.30;99.90;;;;;;3996109;29;20156;-95
2021/01/06 03:14:39;;;;;;;39.10;21.07;;;4.30;99.90;;;;;;3994432;29;20230;-93
2021/01/06 03:16:40;;;;;;;40.77;22.87;;;4.30;99.90;;;;;;3994237;29;20236;-95
2021/01/06 03:18:48;;;;;;;42.43;21.27;;;4.30;99.90;;;;;;3994309;29;20215;-94
2021/01/06 03:20:51;;;;;;;42.87;22.87;;;4.20;99.90;;;;;;3994355;29;20171;-94
2021/01/06 03:22:58;;;;;;;42.13;21.97;;;4.30;99.90;;;;;;3981771;29;20265;-96
2021/01/06 03:25:13;;;;;;;46.17;22.40;;;4.30;99.90;;;;;;3994390;29;20196;-94
2021/01/06 03:27:20;;;;;;;45.27;23.40;;;4.30;99.90;;;;;;3993894;29;20187;-94
2021/01/06 03:29:21;;;;;;;48.23;22.60;;;4.30;99.90;;;;;;3995758;29;20255;-94
2021/01/06 03:31:36;;;;;;;44.70;22.33;;;4.40;99.90;;;;;;3994345;29;20268;-94
2021/01/06 03:33:58;;;;;;;45.63;23.80;;;4.40;99.90;;;;;;4048471;23;20247;-94
2021/01/06 03:36:12;;;;;;;44.87;22.67;;;4.40;99.90;;;;;;3995564;29;20211;-94
2021/01/06 03:38:23;;;;;;;44.67;21.93;;;4.30;99.90;;;;;;4011276;29;20191;-94
2021/01/06 03:40:46;;;;;;;47.93;23.63;;;4.40;99.90;;;;;;4009845;29;20198;-94
2021/01/06 03:42:47;;;;;;;47.53;22.87;;;4.40;99.90;;;;;;3995501;29;20199;-93
2021/01/06 03:45:05;;;;;;;47.13;22.73;;;4.40;99.90;;;;;;4011137;29;20194;-94
2021/01/06 03:47:14;;;;;;;47.70;23.00;;;4.40;99.90;;;;;;4024432;29;20262;-94
2021/01/06 03:49:52;;;;;;;45.37;22.53;;;4.40;99.90;;;;;;4009554;29;20662;-94
2021/01/06 03:52:10;;;;;;;48.33;22.77;;;4.40;99.90;;;;;;4009082;29;20198;-94
2021/01/06 03:55:02;;;;;;;46.50;23.77;;;4.50;99.90;;;;;;4014152;29;20243;-94
2021/01/06 03:57:07;;;;;;;53.20;24.07;;;4.50;99.90;;;;;;4012418;29;20278;-94
2021/01/06 03:59:24;;;;;;;50.27;23.63;;;4.50;99.90;;;;;;4025491;29;20204;-95
2021/01/06 04:01:43;;;;;;;50.10;23.37;;;4.60;99.90;;;;;;3993890;29;20168;-94
2021/01/06 04:04:02;;;;;;;53.27;25.23;;;4.50;99.90;;;;;;3995440;29;20211;-93
2021/01/06 04:06:05;;;;;;;55.27;26.23;;;4.50;99.90;;;;;;4009442;29;20210;-93
2021/01/06 04:08:13;;;;;;;53.73;24.27;;;4.50;99.90;;;;;;4010669;29;20179;-94
2021/01/06 04:10:17;;;;;;;56.63;25.27;;;4.50;99.90;;;;;;3997945;29;20191;-94
2021/01/06 04:12:19;;;;;;;51.37;23.60;;;4.60;99.90;;;;;;3994388;29;20174;-93
2021/01/06 04:14:20;;;;;;;56.37;25.27;;;4.60;99.90;;;;;;3997947;29;20335;-95
2021/01/06 04:16:21;;;;;;;54.90;25.07;;;4.60;99.90;;;;;;4025240;29;20269;-93
2021/01/06 04:18:25;;;;;;;57.47;25.33;;;4.60;99.90;;;;;;4010705;29;20216;-94
2021/01/06 04:20:33;;;;;;;57.23;27.03;;;4.60;99.90;;;;;;4024304;29;20201;-94
2021/01/06 04:22:51;;;;;;;56.80;25.20;;;4.60;99.90;;;;;;3993838;29;20196;-95
2021/01/06 04:24:52;;;;;;;57.77;26.13;;;4.50;99.90;;;;;;3993498;29;20200;-93
2021/01/06 04:26:56;;;;;;;52.93;24.00;;;4.40;99.90;;;;;;4025881;29;20185;-94
2021/01/06 04:29:14;;;;;;;59.93;26.33;;;4.40;99.90;;;;;;4009677;29;20588;-94
2021/01/06 04:31:29;;;;;;;57.27;25.80;;;4.50;99.90;;;;;;3997451;29;20283;-94
2021/01/06 04:33:45;;;;;;;58.93;26.13;;;4.50;99.90;;;;;;3993261;29;20245;-94
2021/01/06 04:35:51;;;;;;;57.30;27.60;;;4.50;99.90;;;;;;3993384;29;20196;-93
2021/01/06 04:37:56;;;;;;;59.83;25.33;;;4.40;99.90;;;;;;4001144;23;20239;-94
2021/01/06 04:39:58;;;;;;;60.37;25.27;;;4.40;99.90;;;;;;3993495;29;20183;-94
2021/01/06 04:42:05;;;;;;;63.03;26.70;;;4.40;99.90;;;;;;3996458;29;20191;-95
2021/01/06 04:44:40;;;;;;;57.37;26.23;;;4.50;99.90;;;;;;3978159;29;20204;-94
2021/01/06 04:47:02;;;;;;;61.97;25.03;;;4.50;99.90;;;;;;3979977;29;20277;-95
2021/01/06 04:49:12;;;;;;;58.03;26.47;;;4.50;99.90;;;;;;3994183;29;20213;-94
2021/01/06 04:51:39;;;;;;;57.17;25.07;;;4.40;99.90;;;;;;4116064;23;20568;-95
2021/01/06 04:54:13;;;;;;;53.80;26.07;;;4.40;99.90;;;;;;4024455;29;20202;-94
2021/01/06 04:56:32;;;;;;;54.97;24.80;;;4.50;99.90;;;;;;3996634;29;20236;-94
2021/01/06 04:59:00;;;;;;;52.87;24.60;;;4.50;99.90;;;;;;4008722;29;20187;-93
2021/01/06 05:01:26;;;;;;;52.23;23.40;;;4.60;99.90;;;;;;4011165;29;20268;-94
2021/01/06 05:03:57;;;;;;;49.70;23.90;;;4.60;99.90;;;;;;4008626;29;20199;-94
2021/01/06 05:06:36;;;;;;;51.47;24.43;;;4.60;99.90;;;;;;4010806;29;20326;-94
2021/01/06 05:55:58;;;;;;;34.20;19.60;;;4.40;99.90;;;;;;4372184;23;20734;31
2021/01/06 05:58:57;;;;;;;33.70;18.93;;;4.40;99.90;;;;;;3978020;29;20238;-94
2021/01/06 06:05:00;;;;;;;32.93;18.70;;;4.50;99.90;;;;;;4315360;23;20237;-94
2021/01/06 06:08:28;;;;;;;35.87;19.43;;;4.40;99.90;;;;;;4025997;29;20227;-95
2021/01/06 06:11:40;;;;;;;36.03;19.93;;;4.30;99.90;;;;;;4033487;29;20198;-94
2021/01/06 06:19:23;;;;;;;35.03;19.43;;;4.40;99.90;;;;;;4024408;29;20266;-94
2021/01/06 06:22:24;;;;;;;33.77;17.77;;;4.40;99.90;;;;;;4154292;23;20242;-93
2021/01/06 06:25:05;;;;;;;40.13;18.27;;;4.30;99.90;;;;;;4007005;29;20207;-94
2021/01/06 06:28:03;;;;;;;;;;;;;;;;;;;;;
2021/01/06 06:30:49;;;;;;;35.27;19.23;;;4.30;99.90;;;;;;4010495;29;20175;-94
2021/01/06 06:36:06;;;;;;;34.90;18.07;;;4.40;99.90;;;;;;4022255;29;20241;-94
2021/01/06 06:39:07;;;;;;;37.10;19.47;;;4.40;99.90;;;;;;4026938;29;20203;-94
2021/01/06 06:45:35;;;;;;;38.63;20.10;;;4.40;99.90;;;;;;4171808;23;20269;-95
2021/01/06 06:48:41;;;;;;;37.57;19.50;;;4.40;99.90;;;;;;4134938;23;20239;-94
2021/01/06 06:54:33;;;;;;;37.33;19.77;;;4.50;99.90;;;;;;4027757;29;20247;-93
2021/01/06 07:06:13;;;;;;;38.30;20.00;;;4.50;99.90;;;;;;4060831;23;20233;-94
2021/01/06 07:09:33;;;;;;;;;;;;;;;;;;;;;
2021/01/06 07:17:41;;;;;;;38.20;19.83;;;4.50;99.90;;;;;;4042810;29;20197;-94
2021/01/06 07:26:28;;;;;;;44.97;21.90;;;4.40;99.90;;;;;;4269933;23;20225;-94
2021/01/06 07:28:33;;;;;;;40.53;20.13;;;4.40;99.90;;;;;;4040062;29;20185;-93
2021/01/06 07:30:42;;;;;;;36.33;18.70;;;4.40;99.90;;;;;;4005206;29;20186;-94
2021/01/06 07:32:44;;;;;;;40.83;19.23;;;4.50;99.90;;;;;;4017926;29;20186;-93
2021/01/06 07:34:50;;;;;;;43.10;19.07;;;4.50;99.90;;;;;;4017852;29;20207;-93
2021/01/06 07:36:54;;;;;;;39.30;21.50;;;4.70;99.90;;;;;;4018104;29;20228;-93
2021/01/06 07:38:58;;;;;;;38.70;18.80;;;4.70;99.90;;;;;;4003314;29;20252;-95
2021/01/06 07:41:00;;;;;;;38.13;20.37;;;4.60;99.90;;;;;;4004074;29;20227;-93
2021/01/06 07:43:26;;;;;;;41.40;19.80;;;4.60;99.90;;;;;;4020979;29;20178;-93
2021/01/06 07:45:33;;;;;;;39.37;20.30;;;4.50;99.90;;;;;;4016791;29;20223;-93
2021/01/06 07:47:41;;;;;;;40.37;20.83;;;4.50;99.90;;;;;;4003215;29;20172;-94
2021/01/06 07:49:53;;;;;;;38.50;17.90;;;4.60;99.90;;;;;;4019507;29;20194;-94
2021/01/06 07:52:22;;;;;;;37.67;19.57;;;4.60;99.90;;;;;;4037438;29;20170;-93
2021/01/06 07:54:38;;;;;;;41.23;20.50;;;4.50;99.90;;;;;;4005089;29;20237;-94
2021/01/06 07:57:00;;;;;;;39.53;18.80;;;4.40;99.90;;;;;;4003838;29;20205;-93
2021/01/06 07:59:02;;;;;;;41.77;19.87;;;4.40;99.90;;;;;;4004143;29;20282;-94
2021/01/06 08:01:33;;;;;;;46.97;21.63;;;4.50;99.90;;;;;;4003781;29;20222;-93
2021/01/06 08:03:34;;;;;;;42.27;20.57;;;4.60;99.90;;;;;;4004006;29;20667;-94
2021/01/06 08:05:35;;;;;;;41.60;20.60;;;4.50;99.90;;;;;;4002947;29;20238;-94
2021/01/06 08:07:36;;;;;;;40.43;19.77;;;4.60;99.90;;;;;;4001874;29;20168;-94
2021/01/06 08:09:42;;;;;;;41.20;21.23;;;4.50;99.90;;;;;;4004192;29;20164;-93
2021/01/06 08:11:48;;;;;;;39.43;20.57;;;4.50;99.90;;;;;;4003415;29;20188;-94
2021/01/06 08:14:01;;;;;;;43.83;20.30;;;4.50;99.90;;;;;;4004659;29;20240;-93
2021/01/06 08:16:39;;;;;;;44.73;20.80;;;4.40;99.90;;;;;;4022302;29;20198;-93
2021/01/06 08:19:23;;;;;;;43.90;21.17;;;4.40;99.90;;;;;;4021075;29;20197;-93
2021/01/06 08:21:43;;;;;;;41.90;18.97;;;4.30;99.90;;;;;;4008402;29;20219;-93
2021/01/06 08:24:07;;;;;;;42.93;20.73;;;4.30;99.90;;;;;;4021163;29;20198;-93
2021/01/06 08:26:26;;;;;;;40.20;20.60;;;4.20;99.90;;;;;;4017997;29;20225;-92
2021/01/06 08:28:30;;;;;;;37.23;19.40;;;4.20;99.90;;;;;;4006696;29;20179;-93
2021/01/06 08:30:37;;;;;;;38.57;20.57;;;4.20;99.90;;;;;;4004780;29;20203;-94
2021/01/06 08:32:39;;;;;;;36.80;19.93;;;4.20;99.90;;;;;;4005678;29;20192;-94
2021/01/06 08:35:02;;;;;;;38.13;20.00;;;4.20;99.90;;;;;;4020462;29;20209;-93
2021/01/06 08:37:11;;;;;;;33.93;18.50;;;4.20;99.90;;;;;;4006606;29;20223;-93
2021/01/06 08:39:16;;;;;;;35.43;18.93;;;4.20;99.90;;;;;;4020093;29;20242;-94
2021/01/06 08:41:21;;;;;;;32.50;19.60;;;4.20;99.90;;;;;;4005722;29;20247;-93
2021/01/06 08:43:23;;;;;;;37.50;19.40;;;4.20;99.90;;;;;;4006484;29;20239;-94
2021/01/06 08:45:34;;;;;;;37.83;18.97;;;4.30;99.90;;;;;;4002741;29;20191;-91
2021/01/06 08:47:42;;;;;;;34.83;17.97;;;4.30;99.90;;;;;;4006663;29;20186;-93
2021/01/06 08:49:45;;;;;;;32.47;18.23;;;4.30;99.90;;;;;;4004550;29;20191;-93
2021/01/06 08:51:46;;;;;;;34.33;18.90;;;4.50;99.90;;;;;;4020108;29;20210;-92
2021/01/06 08:53:47;;;;;;;32.40;18.87;;;4.50;99.90;;;;;;4002540;29;20203;-93
2021/01/06 08:55:58;;;;;;;33.67;18.37;;;4.70;99.90;;;;;;4018925;29;20650;-94
2021/01/06 08:58:11;;;;;;;36.80;18.83;;;4.80;99.90;;;;;;4002085;29;20332;-93
2021/01/06 09:00:14;;;;;;;32.40;18.43;;;4.90;99.90;;;;;;4003452;29;20199;-94
2021/01/06 09:02:21;;;;;;;37.90;20.10;;;4.90;99.90;;;;;;4004547;29;20172;-93
2021/01/06 09:04:42;;;;;;;38.43;19.77;;;4.90;99.90;;;;;;4017211;29;20198;-93
2021/01/06 09:07:19;;;;;;;35.47;19.27;;;4.90;99.90;;;;;;4002960;29;20212;-93
2021/01/06 09:09:35;;;;;;;36.30;18.83;;;4.90;99.90;;;;;;3974891;29;20195;-94
2021/01/06 09:11:51;;;;;;;39.40;20.03;;;5.00;99.90;;;;;;4017305;29;20220;-94
2021/01/06 09:14:10;;;;;;;37.07;19.20;;;5.10;99.90;;;;;;3987206;29;20209;-93
2021/01/06 09:16:46;;;;;;;33.60;18.50;;;5.20;99.90;;;;;;4032596;29;20190;-93
2021/01/06 09:19:06;;;;;;;34.50;18.90;;;5.20;99.90;;;;;;3998291;29;20190;-94
2021/01/06 09:21:30;;;;;;;36.00;18.07;;;5.10;99.90;;;;;;4018984;29;20199;-93
2021/01/06 09:23:37;;;;;;;33.70;18.77;;;5.00;99.90;;;;;;4018699;29;20198;-95
2021/01/06 09:25:42;;;;;;;34.63;18.83;;;5.00;99.90;;;;;;4018315;29;20239;-95
2021/01/06 09:28:06;;;;;;;31.87;19.10;;;4.90;99.90;;;;;;4035390;29;20182;-94
2021/01/06 09:30:18;;;;;;;34.00;19.07;;;4.80;99.90;;;;;;3988278;29;20193;-92
2021/01/06 09:32:30;;;;;;;32.37;17.57;;;4.80;99.90;;;;;;4002316;29;20247;-93
2021/01/06 09:34:44;;;;;;;33.40;18.87;;;4.70;99.90;;;;;;4018039;29;20262;-93
2021/01/06 09:36:47;;;;;;;32.50;18.10;;;4.70;99.90;;;;;;4001634;29;20184;-93
2021/01/06 09:38:54;;;;;;;35.70;19.27;;;4.70;99.90;;;;;;4004509;29;20183;-95
2021/01/06 09:41:02;;;;;;;32.97;19.90;;;4.70;99.90;;;;;;4007408;29;20188;-93
2021/01/06 09:43:38;;;;;;;34.60;19.90;;;4.50;99.90;;;;;;4006418;29;20183;-93
2021/01/06 09:45:44;;;;;;;36.47;20.80;;;4.40;99.90;;;;;;4005920;29;20726;-94
2021/01/06 09:47:47;;;;;;;34.30;20.37;;;4.40;99.90;;;;;;4020177;29;20167;-93
2021/01/06 09:49:55;;;;;;;34.60;21.17;;;4.40;99.90;;;;;;4003938;29;20184;-93
2021/01/06 09:52:02;;;;;;;33.80;19.57;;;4.50;99.90;;;;;;4017860;29;20224;-93
2021/01/06 09:54:06;;;;;;;33.70;19.67;;;4.50;99.90;;;;;;4019314;29;20195;-93
2021/01/06 09:56:15;;;;;;;35.63;20.67;;;4.50;99.90;;;;;;4016178;29;20190;-92
2021/01/06 09:58:25;;;;;;;36.00;19.47;;;4.50;99.90;;;;;;4001985;29;20191;-94
2021/01/06 10:00:48;;;;;;;38.30;20.37;;;4.60;99.90;;;;;;4002678;29;20179;-94
2021/01/06 10:02:52;;;;;;;30.93;18.73;;;4.80;99.90;;;;;;4003402;29;20187;-92
2021/01/06 10:05:18;;;;;;;37.60;20.07;;;4.80;99.90;;;;;;4003676;29;20212;-94
2021/01/06 10:08:04;;;;;;;32.47;18.17;;;4.80;99.90;;;;;;3991553;29;20210;-93
2021/01/06 10:10:38;;;;;;;28.60;16.33;;;4.90;99.90;;;;;;4022705;29;20173;-93
2021/01/06 10:12:55;;;;;;;35.07;20.33;;;4.60;99.90;;;;;;4018633;29;20166;-93
2021/01/06 10:15:20;;;;;;;34.87;20.10;;;4.60;99.90;;;;;;3999789;29;20215;-93
2021/01/06 10:17:29;;;;;;;30.73;18.90;;;4.60;99.90;;;;;;4020549;29;20259;-93
2021/01/06 10:19:53;;;;;;;32.97;19.57;;;4.50;99.90;;;;;;4002089;29;20187;-93
2021/01/06 10:22:02;;;;;;;33.10;19.83;;;4.50;99.90;;;;;;4001729;29;20187;-94
2021/01/06 10:24:40;;;;;;;32.23;19.47;;;4.70;99.90;;;;;;3999547;29;20198;-94
2021/01/06 10:26:53;;;;;;;30.73;18.60;;;4.80;99.90;;;;;;4001834;29;20262;-94
2021/01/06 10:28:55;;;;;;;30.60;17.77;;;4.80;99.90;;;;;;4015818;29;20185;-93
2021/01/06 10:31:08;;;;;;;31.63;17.67;;;4.80;99.90;;;;;;3998286;29;20187;-93
2021/01/06 10:33:21;;;;;;;28.93;17.73;;;4.90;99.90;;;;;;4001491;29;20170;-94
2021/01/06 10:35:38;;;;;;;30.80;18.83;;;4.90;99.90;;;;;;4012934;29;20183;-93
2021/01/06 10:37:43;;;;;;;29.17;18.20;;;4.80;99.90;;;;;;3999242;29;20183;-93
2021/01/06 10:39:53;;;;;;;35.10;19.97;;;4.80;99.90;;;;;;3998036;29;20218;-94
2021/01/06 10:42:02;;;;;;;29.27;18.07;;;4.70;99.90;;;;;;4013339;29;20342;-94
2021/01/06 10:44:42;;;;;;;34.83;20.13;;;4.80;99.90;;;;;;3994891;29;20218;-94
2021/01/06 10:46:51;;;;;;;28.37;18.03;;;4.80;99.90;;;;;;3979827;29;20232;-93
2021/01/06 10:48:52;;;;;;;34.67;20.43;;;4.70;99.90;;;;;;4002191;29;20212;-93
2021/01/06 10:50:55;;;;;;;31.90;20.47;;;4.60;99.90;;;;;;3998428;29;20175;-94
2021/01/06 10:53:07;;;;;;;38.77;22.97;;;4.60;99.90;;;;;;3996150;29;20313;-94
2021/01/06 10:55:53;;;;;;;31.20;19.90;;;4.60;99.90;;;;;;3999697;29;20202;-93
2021/01/06 10:58:03;;;;;;;32.90;19.30;;;4.60;99.90;;;;;;3983736;29;20214;-93
2021/01/06 11:00:11;;;;;;;30.13;19.43;;;4.70;99.90;;;;;;4012824;29;20183;-93
2021/01/06 11:02:34;;;;;;;31.20;17.57;;;4.80;99.90;;;;;;3996495;29;20199;-93
2021/01/06 11:04:57;;;;;;;29.70;16.90;;;4.90;99.90;;;;;;4013328;29;20243;-93
2021/01/06 11:07:21;;;;;;;28.00;17.57;;;4.90;99.90;;;;;;3996436;29;20212;-93
2021/01/06 11:09:34;;;;;;;26.87;17.63;;;5.00;99.90;;;;;;4000933;29;20188;-92
2021/01/06 11:14:20;;;;;;;29.37;17.60;;;4.70;99.90;;;;;;4006497;29;20225;-95
2021/01/06 11:16:28;;;;;;;29.83;17.93;;;4.60;99.90;;;;;;4006990;29;20186;-96
2021/01/06 11:18:35;;;;;;;30.73;17.97;;;4.60;99.90;;;;;;4008441;29;20198;-94
2021/01/06 11:20:44;;;;;;;27.30;17.93;;;4.60;99.90;;;;;;4031594;23;20806;-95
2021/01/06 11:22:46;;;;;;;32.10;17.90;;;4.50;99.90;;;;;;3995750;29;20655;-94
2021/01/06 11:25:07;;;;;;;30.13;17.77;;;4.50;99.90;;;;;;4010581;29;20186;-95
2021/01/06 11:27:48;;;;;;;26.40;17.70;;;4.50;99.90;;;;;;4010100;29;20221;-94
2021/01/06 11:30:24;;;;;;;29.17;17.83;;;4.50;99.90;;;;;;3996276;29;20167;-94
2021/01/06 11:32:36;;;;;;;27.77;16.80;;;4.60;99.90;;;;;;3964977;29;20217;-93
2021/01/06 11:35:23;;;;;;;32.27;18.23;;;4.70;99.90;;;;;;3997014;29;20225;-94
2021/01/06 11:37:37;;;;;;;32.00;18.80;;;4.70;99.90;;;;;;3995308;29;20160;-94
2021/01/06 11:39:41;;;;;;;31.30;18.37;;;4.60;99.90;;;;;;3995934;29;20216;-94
2021/01/06 11:41:42;;;;;;;29.67;19.03;;;4.60;99.90;;;;;;3996619;29;20215;-94
2021/01/06 11:44:06;;;;;;;32.97;17.67;;;4.50;99.90;;;;;;3994359;29;20202;-96
2021/01/06 11:46:28;;;;;;;36.70;20.00;;;4.40;99.90;;;;;;3990914;29;20227;-94
2021/01/06 11:48:40;;;;;;;31.90;20.50;;;4.40;99.90;;;;;;3996497;29;20266;-94
2021/01/06 11:50:49;;;;;;;31.27;18.67;;;4.40;99.90;;;;;;4010331;29;20205;-93
2021/01/06 11:52:51;;;;;;;33.57;19.13;;;4.40;99.90;;;;;;4011293;29;20187;-94
2021/01/06 11:55:00;;;;;;;28.87;17.47;;;4.30;99.90;;;;;;4009588;29;20334;-95
2021/01/06 11:57:13;;;;;;;31.97;18.77;;;4.30;99.90;;;;;;4009483;29;20178;-95
2021/01/06 11:59:44;;;;;;;29.47;16.87;;;4.40;99.90;;;;;;4013248;29;20195;-94
2021/01/06 12:02:17;;;;;;;31.90;17.80;;;4.40;99.90;;;;;;3996664;29;20191;-94
2021/01/06 12:04:30;;;;;;;30.37;17.90;;;4.40;99.90;;;;;;4009002;29;20219;-94
2021/01/06 12:06:56;;;;;;;29.87;18.30;;;4.40;99.90;;;;;;4012400;29;20686;-93
2021/01/06 12:09:38;;;;;;;28.37;17.33;;;4.40;99.90;;;;;;4010238;29;20435;-93
2021/01/06 12:11:51;;;;;;;27.73;17.80;;;4.40;99.90;;;;;;4012328;29;20289;-94
2021/01/06 12:14:27;;;;;;;30.77;17.37;;;4.30;99.90;;;;;;4012909;29;20588;-96
2021/01/06 12:16:52;;;;;;;27.10;15.83;;;4.20;99.90;;;;;;4013165;29;20194;-93
2021/01/06 12:19:46;;;;;;;31.73;17.53;;;4.30;99.90;;;;;;3995327;29;20306;-94
2021/01/06 12:22:12;;;;;;;29.90;16.97;;;4.30;99.90;;;;;;4012008;29;20175;-93
2021/01/06 12:24:24;;;;;;;30.53;17.43;;;4.40;99.90;;;;;;3995107;29;20343;-94
2021/01/06 12:26:47;;;;;;;28.40;17.20;;;4.40;99.90;;;;;;3993315;29;20299;-94
2021/01/06 12:28:59;;;;;;;29.03;17.43;;;4.50;99.90;;;;;;3980803;29;20226;-94
2021/01/06 12:31:19;;;;;;;30.60;16.73;;;4.40;99.90;;;;;;3995105;29;20278;-94
2021/01/06 12:33:31;;;;;;;28.37;16.97;;;4.60;99.90;;;;;;3981913;29;20200;-94
2021/01/06 12:35:38;;;;;;;27.40;16.97;;;4.70;99.90;;;;;;3980252;29;20180;-94
2021/01/06 12:37:43;;;;;;;28.53;17.03;;;4.60;99.90;;;;;;3993910;29;20214;-95
2021/01/06 12:39:51;;;;;;;30.63;18.27;;;4.70;99.90;;;;;;3993546;29;20195;-94
2021/01/06 12:42:32;;;;;;;29.87;17.70;;;4.60;99.90;;;;;;3993464;29;20175;-94
2021/01/06 12:44:37;;;;;;;29.23;18.40;;;4.50;99.90;;;;;;3978323;29;20300;-94
2021/01/06 12:46:49;;;;;;;30.33;18.17;;;4.40;99.90;;;;;;3981066;29;20589;-94
2021/01/06 12:49:09;;;;;;;30.63;17.73;;;4.40;99.90;;;;;;3995786;29;20184;-93
2021/01/06 12:51:21;;;;;;;29.67;17.93;;;4.30;99.90;;;;;;4009260;29;20274;-93
2021/01/06 12:53:39;;;;;;;32.30;18.17;;;4.30;99.90;;;;;;3993990;29;20302;-94
2021/01/06 12:56:29;;;;;;;29.80;17.63;;;4.40;99.90;;;;;;3996508;29;20239;-94
2021/01/06 12:58:44;;;;;;;32.57;18.37;;;4.40;99.90;;;;;;3989872;29;20205;-94
2021/01/06 13:00:46;;;;;;;31.10;18.10;;;4.50;99.90;;;;;;3994237;29;20616;-95
2021/01/06 13:02:51;;;;;;;30.73;18.03;;;4.60;99.90;;;;;;3994934;29;20266;-93
2021/01/06 13:04:56;;;;;;;30.87;18.20;;;4.50;99.90;;;;;;3993282;29;20191;-96
2021/01/06 13:07:28;;;;;;;31.80;18.60;;;4.60;99.90;;;;;;3994949;29;20219;-95
2021/01/06 13:09:45;;;;;;;30.97;18.00;;;4.60;99.90;;;;;;3988305;29;20195;-95